sensor_id;sensor_type;location;lat;lon;timestamp;temperature;humidity
21648;DHT22;10985;54.182;7.890;2022-09-12T00:00:10;16.40;99.90
21648;DHT22;10985;54.182;7.890;2022-09-12T00:02:35;16.40;99.90
21648;DHT22;10985;54.182;7.890;2022-09-12T00:05:02;16.40;99.90
21648;DHT22;10985;54.182;7.890;2022-09-12T00:07:27;16.40;99.90
21648;DHT22;10985;54.182;7.890;2022-09-12T00:09:53;16.40;99.90
21648;DHT22;10985;54.182;7.890;2022-09-12T00:12:18;16.40;99.90
21648;DHT22;10985;54.182;7.890;2022-09-12T00:14:44;16.40;99.90
21648;DHT22;10985;54.182;7.890;2022-09-12T00:17:09;16.40;99.90
21648;DHT22;10985;54.182;7.890;2022-09-12T00:19:35;16.40;99.90
21648;DHT22;10985;54.182;7.890;2022-09-12T00:22:00;16.40;99.90
21648;DHT22;10985;54.182;7.890;2022-09-12T00:24:26;16.40;99.90
21648;DHT22;10985;54.182;7.890;2022-09-12T00:26:52;16.40;99.90
21648;DHT22;10985;54.182;7.890;2022-09-12T00:29:19;16.40;99.90
21648;DHT22;10985;54.182;7.890;2022-09-12T00:31:45;16.40;99.90
21648;DHT22;10985;54.182;7.890;2022-09-12T00:34:11;16.40;99.90
21648;DHT22;10985;54.182;7.890;2022-09-12T00:36:37;16.40;99.90
21648;DHT22;10985;54.182;7.890;2022-09-12T00:39:03;16.40;99.90
21648;DHT22;10985;54.182;7.890;2022-09-12T00:41:38;16.40;99.90
21648;DHT22;10985;54.182;7.890;2022-09-12T00:49:30;16.40;99.90
21648;DHT22;10985;54.182;7.890;2022-09-12T00:51:58;16.40;99.90
21648;DHT22;10985;54.182;7.890;2022-09-12T00:54:27;16.40;99.90
21648;DHT22;10985;54.182;7.890;2022-09-12T00:56:56;16.30;99.90
21648;DHT22;10985;54.182;7.890;2022-09-12T00:59:27;16.40;99.90
21648;DHT22;10985;54.182;7.890;2022-09-12T01:01:54;16.30;99.90
21648;DHT22;10985;54.182;7.890;2022-09-12T01:04:21;16.40;99.90
21648;DHT22;10985;54.182;7.890;2022-09-12T01:06:49;16.40;99.90
21648;DHT22;10985;54.182;7.890;2022-09-12T01:09:18;16.30;99.90
21648;DHT22;10985;54.182;7.890;2022-09-12T01:11:44;16.40;99.90
21648;DHT22;10985;54.182;7.890;2022-09-12T01:14:12;16.40;99.90
21648;DHT22;10985;54.182;7.890;2022-09-12T01:16:38;16.40;99.90
21648;DHT22;10985;54.182;7.890;2022-09-12T01:25:27;16.30;99.90
21648;DHT22;10985;54.182;7.890;2022-09-12T01:28:33;16.30;99.90
21648;DHT22;10985;54.182;7.890;2022-09-12T01:31:06;16.40;99.90
21648;DHT22;10985;54.182;7.890;2022-09-12T01:33:38;16.30;99.90
21648;DHT22;10985;54.182;7.890;2022-09-12T01:36:31;16.30;99.90
21648;DHT22;10985;54.182;7.890;2022-09-12T01:39:15;16.30;99.90
21648;DHT22;10985;54.182;7.890;2022-09-12T01:41:53;16.40;99.90
21648;DHT22;10985;54.182;7.890;2022-09-12T01:44:38;16.40;99.90
21648;DHT22;10985;54.182;7.890;2022-09-12T01:47:13;16.40;99.90
21648;DHT22;10985;54.182;7.890;2022-09-12T01:50:03;16.40;99.90
21648;DHT22;10985;54.182;7.890;2022-09-12T01:58:04;16.50;99.90
21648;DHT22;10985;54.182;7.890;2022-09-12T02:00:32;16.40;99.90
21648;DHT22;10985;54.182;7.890;2022-09-12T02:03:02;16.40;99.90
21648;DHT22;10985;54.182;7.890;2022-09-12T02:05:38;16.40;99.90
21648;DHT22;10985;54.182;7.890;2022-09-12T02:08:19;16.50;99.90
21648;DHT22;10985;54.182;7.890;2022-09-12T02:10:55;16.40;99.90
21648;DHT22;10985;54.182;7.890;2022-09-12T02:13:37;16.50;99.90
21648;DHT22;10985;54.182;7.890;2022-09-12T02:16:08;16.40;99.90
21648;DHT22;10985;54.182;7.890;2022-09-12T02:18:39;16.50;99.90
21648;DHT22;10985;54.182;7.890;2022-09-12T02:21:06;16.50;99.90
21648;DHT22;10985;54.182;7.890;2022-09-12T02:23:34;16.50;99.90
21648;DHT22;10985;54.182;7.890;2022-09-12T02:26:11;16.50;99.90
21648;DHT22;10985;54.182;7.890;2022-09-12T02:28:41;16.50;99.90
21648;DHT22;10985;54.182;7.890;2022-09-12T02:34:08;16.50;99.90
21648;DHT22;10985;54.182;7.890;2022-09-12T02:36:45;16.50;99.90
21648;DHT22;10985;54.182;7.890;2022-09-12T02:39:14;16.50;99.90
21648;DHT22;10985;54.182;7.890;2022-09-12T02:41:49;16.50;99.90
21648;DHT22;10985;54.182;7.890;2022-09-12T02:44:15;16.50;99.90
21648;DHT22;10985;54.182;7.890;2022-09-12T02:46:43;16.50;99.90
21648;DHT22;10985;54.182;7.890;2022-09-12T02:49:11;16.50;99.90
21648;DHT22;10985;54.182;7.890;2022-09-12T02:51:37;16.50;99.90
21648;DHT22;10985;54.182;7.890;2022-09-12T02:54:03;16.50;99.90
21648;DHT22;10985;54.182;7.890;2022-09-12T02:56:31;16.50;99.90
21648;DHT22;10985;54.182;7.890;2022-09-12T02:59:04;16.50;99.90
21648;DHT22;10985;54.182;7.890;2022-09-12T03:04:36;16.40;99.90
21648;DHT22;10985;54.182;7.890;2022-09-12T03:18:05;16.40;99.90
21648;DHT22;10985;54.182;7.890;2022-09-12T03:20:40;16.40;99.90
21648;DHT22;10985;54.182;7.890;2022-09-12T03:23:15;16.40;99.90
21648;DHT22;10985;54.182;7.890;2022-09-12T03:26:00;16.40;99.90
21648;DHT22;10985;54.182;7.890;2022-09-12T03:28:27;16.40;99.90
21648;DHT22;10985;54.182;7.890;2022-09-12T03:30:53;16.40;99.90
21648;DHT22;10985;54.182;7.890;2022-09-12T03:33:22;16.40;99.90
21648;DHT22;10985;54.182;7.890;2022-09-12T03:35:49;16.40;99.90
21648;DHT22;10985;54.182;7.890;2022-09-12T03:38:16;16.40;99.90
21648;DHT22;10985;54.182;7.890;2022-09-12T03:40:41;16.40;99.90
21648;DHT22;10985;54.182;7.890;2022-09-12T03:43:08;16.30;99.90
21648;DHT22;10985;54.182;7.890;2022-09-12T03:45:35;16.30;99.90
21648;DHT22;10985;54.182;7.890;2022-09-12T03:48:01;16.40;99.90
21648;DHT22;10985;54.182;7.890;2022-09-12T03:50:27;16.30;99.90
21648;DHT22;10985;54.182;7.890;2022-09-12T03:52:52;16.40;99.90
21648;DHT22;10985;54.182;7.890;2022-09-12T03:55:18;16.30;99.90
21648;DHT22;10985;54.182;7.890;2022-09-12T03:57:44;16.40;99.90
21648;DHT22;10985;54.182;7.890;2022-09-12T04:00:10;16.40;99.90
21648;DHT22;10985;54.182;7.890;2022-09-12T04:02:36;16.40;99.90
21648;DHT22;10985;54.182;7.890;2022-09-12T04:05:01;16.40;99.90
21648;DHT22;10985;54.182;7.890;2022-09-12T04:07:27;16.40;99.90
21648;DHT22;10985;54.182;7.890;2022-09-12T04:09:53;16.40;99.90
21648;DHT22;10985;54.182;7.890;2022-09-12T04:12:19;16.30;99.90
21648;DHT22;10985;54.182;7.890;2022-09-12T04:14:45;16.30;99.90
21648;DHT22;10985;54.182;7.890;2022-09-12T04:17:10;16.30;99.90
21648;DHT22;10985;54.182;7.890;2022-09-12T04:19:36;16.30;99.90
21648;DHT22;10985;54.182;7.890;2022-09-12T04:22:02;16.30;99.90
21648;DHT22;10985;54.182;7.890;2022-09-12T04:24:28;16.40;99.90
21648;DHT22;10985;54.182;7.890;2022-09-12T04:26:53;16.30;99.90
21648;DHT22;10985;54.182;7.890;2022-09-12T04:29:19;16.40;99.90
21648;DHT22;10985;54.182;7.890;2022-09-12T04:31:44;16.30;99.90
21648;DHT22;10985;54.182;7.890;2022-09-12T04:34:10;16.40;99.90
21648;DHT22;10985;54.182;7.890;2022-09-12T04:36:35;16.30;99.90
21648;DHT22;10985;54.182;7.890;2022-09-12T04:39:03;16.30;99.90
21648;DHT22;10985;54.182;7.890;2022-09-12T04:41:38;16.30;99.90
21648;DHT22;10985;54.182;7.890;2022-09-12T04:44:09;16.40;99.90
21648;DHT22;10985;54.182;7.890;2022-09-12T04:46:37;16.30;99.90
21648;DHT22;10985;54.182;7.890;2022-09-12T04:49:03;16.40;99.90
21648;DHT22;10985;54.182;7.890;2022-09-12T04:51:34;16.30;99.90
21648;DHT22;10985;54.182;7.890;2022-09-12T04:54:03;16.30;99.90
21648;DHT22;10985;54.182;7.890;2022-09-12T04:56:29;16.30;99.90
21648;DHT22;10985;54.182;7.890;2022-09-12T04:58:59;16.30;99.90
21648;DHT22;10985;54.182;7.890;2022-09-12T05:01:26;16.30;99.90
21648;DHT22;10985;54.182;7.890;2022-09-12T05:03:53;16.30;99.90
21648;DHT22;10985;54.182;7.890;2022-09-12T05:06:21;16.30;99.90
21648;DHT22;10985;54.182;7.890;2022-09-12T05:08:48;16.30;99.90
21648;DHT22;10985;54.182;7.890;2022-09-12T05:11:19;16.40;99.90
21648;DHT22;10985;54.182;7.890;2022-09-12T05:13:45;16.40;99.90
21648;DHT22;10985;54.182;7.890;2022-09-12T05:16:12;16.40;99.90
21648;DHT22;10985;54.182;7.890;2022-09-12T05:18:40;16.40;99.90
21648;DHT22;10985;54.182;7.890;2022-09-12T05:21:09;16.40;99.90
21648;DHT22;10985;54.182;7.890;2022-09-12T05:23:35;16.40;99.90
21648;DHT22;10985;54.182;7.890;2022-09-12T05:26:02;16.30;99.90
21648;DHT22;10985;54.182;7.890;2022-09-12T05:28:31;16.40;99.90
21648;DHT22;10985;54.182;7.890;2022-09-12T05:33:31;16.40;99.90
21648;DHT22;10985;54.182;7.890;2022-09-12T05:35:57;16.40;99.90
21648;DHT22;10985;54.182;7.890;2022-09-12T05:38:22;16.50;99.90
21648;DHT22;10985;54.182;7.890;2022-09-12T05:40:50;16.50;99.90
21648;DHT22;10985;54.182;7.890;2022-09-12T05:43:15;16.50;99.90
21648;DHT22;10985;54.182;7.890;2022-09-12T05:45:41;16.60;99.90
21648;DHT22;10985;54.182;7.890;2022-09-12T05:48:06;16.60;99.90
21648;DHT22;10985;54.182;7.890;2022-09-12T05:50:32;16.50;99.90
21648;DHT22;10985;54.182;7.890;2022-09-12T05:52:58;16.60;99.90
21648;DHT22;10985;54.182;7.890;2022-09-12T05:55:23;16.60;99.90
21648;DHT22;10985;54.182;7.890;2022-09-12T05:57:49;16.60;99.90
21648;DHT22;10985;54.182;7.890;2022-09-12T06:00:16;16.70;99.90
21648;DHT22;10985;54.182;7.890;2022-09-12T06:02:41;16.70;99.90
21648;DHT22;10985;54.182;7.890;2022-09-12T06:05:07;16.70;99.90
21648;DHT22;10985;54.182;7.890;2022-09-12T06:07:33;16.70;99.90
21648;DHT22;10985;54.182;7.890;2022-09-12T06:10:00;16.70;99.90
21648;DHT22;10985;54.182;7.890;2022-09-12T06:12:27;16.80;99.90
21648;DHT22;10985;54.182;7.890;2022-09-12T06:14:54;16.80;99.90
21648;DHT22;10985;54.182;7.890;2022-09-12T06:17:19;16.90;99.90
21648;DHT22;10985;54.182;7.890;2022-09-12T06:19:46;16.90;99.90
21648;DHT22;10985;54.182;7.890;2022-09-12T06:22:11;17.00;99.90
21648;DHT22;10985;54.182;7.890;2022-09-12T06:24:38;17.00;99.90
21648;DHT22;10985;54.182;7.890;2022-09-12T06:27:03;17.10;99.90
21648;DHT22;10985;54.182;7.890;2022-09-12T06:29:29;17.10;99.90
21648;DHT22;10985;54.182;7.890;2022-09-12T06:31:57;17.20;99.90
21648;DHT22;10985;54.182;7.890;2022-09-12T06:34:22;17.20;99.90
21648;DHT22;10985;54.182;7.890;2022-09-12T06:36:48;17.20;99.90
21648;DHT22;10985;54.182;7.890;2022-09-12T06:39:19;17.30;99.90
21648;DHT22;10985;54.182;7.890;2022-09-12T06:41:45;17.30;99.90
21648;DHT22;10985;54.182;7.890;2022-09-12T06:44:16;17.30;99.90
21648;DHT22;10985;54.182;7.890;2022-09-12T06:46:42;17.30;99.90
21648;DHT22;10985;54.182;7.890;2022-09-12T06:49:08;17.30;99.90
21648;DHT22;10985;54.182;7.890;2022-09-12T06:51:34;17.30;99.90
21648;DHT22;10985;54.182;7.890;2022-09-12T06:54:03;17.30;99.90
21648;DHT22;10985;54.182;7.890;2022-09-12T06:56:29;17.40;99.90
21648;DHT22;10985;54.182;7.890;2022-09-12T06:58:56;17.40;99.90
21648;DHT22;10985;54.182;7.890;2022-09-12T07:01:29;17.40;99.90
21648;DHT22;10985;54.182;7.890;2022-09-12T07:03:59;17.40;99.90
21648;DHT22;10985;54.182;7.890;2022-09-12T07:06:30;17.40;99.90
21648;DHT22;10985;54.182;7.890;2022-09-12T07:09:00;17.50;99.90
21648;DHT22;10985;54.182;7.890;2022-09-12T07:11:29;17.50;99.90
21648;DHT22;10985;54.182;7.890;2022-09-12T07:13:57;17.50;99.90
21648;DHT22;10985;54.182;7.890;2022-09-12T07:16:23;17.50;99.90
21648;DHT22;10985;54.182;7.890;2022-09-12T07:18:51;17.60;99.90
21648;DHT22;10985;54.182;7.890;2022-09-12T07:21:18;17.60;99.90
21648;DHT22;10985;54.182;7.890;2022-09-12T07:23:43;17.70;99.90
21648;DHT22;10985;54.182;7.890;2022-09-12T07:26:10;17.70;99.90
21648;DHT22;10985;54.182;7.890;2022-09-12T07:28:36;17.70;99.90
21648;DHT22;10985;54.182;7.890;2022-09-12T07:31:13;17.80;99.90
21648;DHT22;10985;54.182;7.890;2022-09-12T07:33:40;17.80;99.90
21648;DHT22;10985;54.182;7.890;2022-09-12T07:36:09;17.90;99.90
21648;DHT22;10985;54.182;7.890;2022-09-12T07:38:38;17.90;99.90
21648;DHT22;10985;54.182;7.890;2022-09-12T07:41:12;17.90;99.90
21648;DHT22;10985;54.182;7.890;2022-09-12T07:43:38;18.00;99.90
21648;DHT22;10985;54.182;7.890;2022-09-12T07:46:03;18.00;99.90
21648;DHT22;10985;54.182;7.890;2022-09-12T07:48:29;18.00;99.90
21648;DHT22;10985;54.182;7.890;2022-09-12T07:50:59;18.00;99.90
21648;DHT22;10985;54.182;7.890;2022-09-12T07:53:29;18.10;99.90
21648;DHT22;10985;54.182;7.890;2022-09-12T07:55:55;18.10;99.90
21648;DHT22;10985;54.182;7.890;2022-09-12T07:58:22;18.10;99.90
21648;DHT22;10985;54.182;7.890;2022-09-12T08:00:48;18.10;99.90
21648;DHT22;10985;54.182;7.890;2022-09-12T08:03:14;18.10;99.90
21648;DHT22;10985;54.182;7.890;2022-09-12T08:05:39;18.10;99.90
21648;DHT22;10985;54.182;7.890;2022-09-12T08:08:05;18.10;99.90
21648;DHT22;10985;54.182;7.890;2022-09-12T08:10:30;18.10;99.90
21648;DHT22;10985;54.182;7.890;2022-09-12T08:12:57;18.10;99.90
21648;DHT22;10985;54.182;7.890;2022-09-12T08:15:23;18.10;99.90
21648;DHT22;10985;54.182;7.890;2022-09-12T08:17:49;18.10;99.90
21648;DHT22;10985;54.182;7.890;2022-09-12T08:20:14;18.10;99.90
21648;DHT22;10985;54.182;7.890;2022-09-12T08:22:40;18.20;99.90
21648;DHT22;10985;54.182;7.890;2022-09-12T08:25:06;18.10;99.90
21648;DHT22;10985;54.182;7.890;2022-09-12T08:27:32;18.20;99.90
21648;DHT22;10985;54.182;7.890;2022-09-12T08:29:58;18.20;99.90
21648;DHT22;10985;54.182;7.890;2022-09-12T08:32:24;18.30;99.90
21648;DHT22;10985;54.182;7.890;2022-09-12T08:34:50;18.30;99.90
21648;DHT22;10985;54.182;7.890;2022-09-12T08:37:15;18.30;99.90
21648;DHT22;10985;54.182;7.890;2022-09-12T08:39:41;18.30;99.90
21648;DHT22;10985;54.182;7.890;2022-09-12T08:42:09;18.30;99.90
21648;DHT22;10985;54.182;7.890;2022-09-12T08:44:53;18.30;99.90
21648;DHT22;10985;54.182;7.890;2022-09-12T08:47:31;18.40;99.90
21648;DHT22;10985;54.182;7.890;2022-09-12T08:52:56;18.40;99.90
21648;DHT22;10985;54.182;7.890;2022-09-12T08:58:16;18.50;99.90
21648;DHT22;10985;54.182;7.890;2022-09-12T09:00:50;18.50;99.90
21648;DHT22;10985;54.182;7.890;2022-09-12T09:06:25;18.60;99.90
21648;DHT22;10985;54.182;7.890;2022-09-12T09:14:39;18.70;99.90
21648;DHT22;10985;54.182;7.890;2022-09-12T09:17:40;18.70;99.90
21648;DHT22;10985;54.182;7.890;2022-09-12T09:20:29;18.70;99.90
21648;DHT22;10985;54.182;7.890;2022-09-12T09:23:09;18.60;99.90
21648;DHT22;10985;54.182;7.890;2022-09-12T09:30:54;18.70;99.90
21648;DHT22;10985;54.182;7.890;2022-09-12T09:33:32;18.70;99.90
21648;DHT22;10985;54.182;7.890;2022-09-12T09:36:05;18.80;99.90
21648;DHT22;10985;54.182;7.890;2022-09-12T09:41:32;19.10;99.90
21648;DHT22;10985;54.182;7.890;2022-09-12T09:44:01;19.40;99.90
21648;DHT22;10985;54.182;7.890;2022-09-12T09:46:27;19.60;99.90
21648;DHT22;10985;54.182;7.890;2022-09-12T09:48:54;20.00;99.90
21648;DHT22;10985;54.182;7.890;2022-09-12T09:51:27;20.40;99.90
21648;DHT22;10985;54.182;7.890;2022-09-12T09:53:57;20.80;99.90
21648;DHT22;10985;54.182;7.890;2022-09-12T09:56:36;21.10;99.90
21648;DHT22;10985;54.182;7.890;2022-09-12T09:59:31;21.30;99.90
21648;DHT22;10985;54.182;7.890;2022-09-12T10:04:52;22.00;99.90
21648;DHT22;10985;54.182;7.890;2022-09-12T10:07:19;22.20;99.90
21648;DHT22;10985;54.182;7.890;2022-09-12T10:10:06;22.50;99.90
21648;DHT22;10985;54.182;7.890;2022-09-12T10:12:39;22.70;99.90
21648;DHT22;10985;54.182;7.890;2022-09-12T10:15:19;23.00;99.90
21648;DHT22;10985;54.182;7.890;2022-09-12T10:17:47;23.10;99.90
21648;DHT22;10985;54.182;7.890;2022-09-12T10:20:43;23.10;99.90
21648;DHT22;10985;54.182;7.890;2022-09-12T10:23:34;23.00;99.90
21648;DHT22;10985;54.182;7.890;2022-09-12T10:26:04;23.00;99.90
21648;DHT22;10985;54.182;7.890;2022-09-12T10:28:52;23.20;99.90
21648;DHT22;10985;54.182;7.890;2022-09-12T10:31:35;23.20;99.90
21648;DHT22;10985;54.182;7.890;2022-09-12T10:34:03;23.40;99.90
21648;DHT22;10985;54.182;7.890;2022-09-12T10:36:37;23.40;99.90
21648;DHT22;10985;54.182;7.890;2022-09-12T10:39:04;23.40;99.90
21648;DHT22;10985;54.182;7.890;2022-09-12T10:41:38;23.30;99.90
21648;DHT22;10985;54.182;7.890;2022-09-12T10:44:07;23.40;99.90
21648;DHT22;10985;54.182;7.890;2022-09-12T10:46:37;23.60;99.90
21648;DHT22;10985;54.182;7.890;2022-09-12T10:49:26;23.80;99.90
21648;DHT22;10985;54.182;7.890;2022-09-12T10:51:53;24.10;99.90
21648;DHT22;10985;54.182;7.890;2022-09-12T10:54:22;24.30;99.90
21648;DHT22;10985;54.182;7.890;2022-09-12T10:57:07;24.50;99.90
21648;DHT22;10985;54.182;7.890;2022-09-12T10:59:55;25.00;99.90
21648;DHT22;10985;54.182;7.890;2022-09-12T11:02:40;25.40;99.90
21648;DHT22;10985;54.182;7.890;2022-09-12T11:05:16;25.80;99.90
21648;DHT22;10985;54.182;7.890;2022-09-12T11:07:48;26.10;99.90
21648;DHT22;10985;54.182;7.890;2022-09-12T11:10:27;26.30;99.90
21648;DHT22;10985;54.182;7.890;2022-09-12T11:13:14;26.60;99.90
21648;DHT22;10985;54.182;7.890;2022-09-12T11:16:09;26.70;99.90
21648;DHT22;10985;54.182;7.890;2022-09-12T11:22:08;27.50;99.90
21648;DHT22;10985;54.182;7.890;2022-09-12T11:24:48;27.40;99.90
21648;DHT22;10985;54.182;7.890;2022-09-12T11:27:27;27.60;99.90
21648;DHT22;10985;54.182;7.890;2022-09-12T11:30:02;27.80;99.90
21648;DHT22;10985;54.182;7.890;2022-09-12T11:35:22;28.00;99.90
21648;DHT22;10985;54.182;7.890;2022-09-12T11:43:36;28.30;99.90
21648;DHT22;10985;54.182;7.890;2022-09-12T11:54:24;28.20;99.90
21648;DHT22;10985;54.182;7.890;2022-09-12T12:00:33;27.40;99.90
21648;DHT22;10985;54.182;7.890;2022-09-12T12:05:43;26.50;99.90
21648;DHT22;10985;54.182;7.890;2022-09-12T12:08:12;26.20;99.90
21648;DHT22;10985;54.182;7.890;2022-09-12T12:10:46;25.70;99.90
21648;DHT22;10985;54.182;7.890;2022-09-12T12:15:50;25.20;99.90
21648;DHT22;10985;54.182;7.890;2022-09-12T12:18:21;25.00;99.90
21648;DHT22;10985;54.182;7.890;2022-09-12T12:20:49;24.70;99.90
21648;DHT22;10985;54.182;7.890;2022-09-12T12:25:53;24.20;99.90
21648;DHT22;10985;54.182;7.890;2022-09-12T12:31:07;23.60;99.90
21648;DHT22;10985;54.182;7.890;2022-09-12T12:36:11;23.30;99.90
21648;DHT22;10985;54.182;7.890;2022-09-12T12:38:52;23.10;99.90
21648;DHT22;10985;54.182;7.890;2022-09-12T12:43:45;22.90;99.90
21648;DHT22;10985;54.182;7.890;2022-09-12T12:46:12;22.90;99.90
21648;DHT22;10985;54.182;7.890;2022-09-12T12:49:08;22.80;99.90
21648;DHT22;10985;54.182;7.890;2022-09-12T12:51:42;22.70;99.90
21648;DHT22;10985;54.182;7.890;2022-09-12T12:54:33;22.70;99.90
21648;DHT22;10985;54.182;7.890;2022-09-12T12:59:54;22.70;99.90
21648;DHT22;10985;54.182;7.890;2022-09-12T13:02:35;22.70;99.90
21648;DHT22;10985;54.182;7.890;2022-09-12T13:05:09;22.70;99.90
21648;DHT22;10985;54.182;7.890;2022-09-12T13:07:40;22.70;99.90
21648;DHT22;10985;54.182;7.890;2022-09-12T13:10:21;22.70;99.90
21648;DHT22;10985;54.182;7.890;2022-09-12T13:12:47;22.50;99.90
21648;DHT22;10985;54.182;7.890;2022-09-12T13:18:06;22.30;99.90
21648;DHT22;10985;54.182;7.890;2022-09-12T13:23:28;22.20;99.90
21648;DHT22;10985;54.182;7.890;2022-09-12T13:25:56;22.20;99.90
21648;DHT22;10985;54.182;7.890;2022-09-12T13:28:23;22.30;99.90
21648;DHT22;10985;54.182;7.890;2022-09-12T13:33:58;22.20;99.90
21648;DHT22;10985;54.182;7.890;2022-09-12T13:36:44;22.10;99.90
21648;DHT22;10985;54.182;7.890;2022-09-12T13:39:19;22.10;99.90
21648;DHT22;10985;54.182;7.890;2022-09-12T13:44:48;22.00;99.90
21648;DHT22;10985;54.182;7.890;2022-09-12T13:47:22;21.90;99.90
21648;DHT22;10985;54.182;7.890;2022-09-12T13:49:50;21.80;99.90
21648;DHT22;10985;54.182;7.890;2022-09-12T13:52:21;21.80;99.90
21648;DHT22;10985;54.182;7.890;2022-09-12T13:54:52;21.70;99.90
21648;DHT22;10985;54.182;7.890;2022-09-12T13:57:28;21.70;99.90
21648;DHT22;10985;54.182;7.890;2022-09-12T13:59:55;21.70;99.90
21648;DHT22;10985;54.182;7.890;2022-09-12T14:02:24;21.60;99.90
21648;DHT22;10985;54.182;7.890;2022-09-12T14:04:52;21.60;99.90
21648;DHT22;10985;54.182;7.890;2022-09-12T14:07:50;21.60;99.90
21648;DHT22;10985;54.182;7.890;2022-09-12T14:10:37;21.60;99.90
21648;DHT22;10985;54.182;7.890;2022-09-12T14:13:10;21.60;99.90
21648;DHT22;10985;54.182;7.890;2022-09-12T14:15:37;21.60;99.90
21648;DHT22;10985;54.182;7.890;2022-09-12T14:18:04;21.60;99.90
21648;DHT22;10985;54.182;7.890;2022-09-12T14:20:35;21.60;99.90
21648;DHT22;10985;54.182;7.890;2022-09-12T14:23:33;21.60;99.90
21648;DHT22;10985;54.182;7.890;2022-09-12T14:26:02;21.50;99.90
21648;DHT22;10985;54.182;7.890;2022-09-12T14:28:29;21.50;99.90
21648;DHT22;10985;54.182;7.890;2022-09-12T14:31:03;21.50;99.90
21648;DHT22;10985;54.182;7.890;2022-09-12T14:33:33;21.40;99.90
21648;DHT22;10985;54.182;7.890;2022-09-12T14:36:35;21.30;99.90
21648;DHT22;10985;54.182;7.890;2022-09-12T14:39:03;21.30;99.90
21648;DHT22;10985;54.182;7.890;2022-09-12T14:41:36;21.30;99.90
21648;DHT22;10985;54.182;7.890;2022-09-12T14:44:05;21.20;99.90
21648;DHT22;10985;54.182;7.890;2022-09-12T14:46:36;21.20;99.90
21648;DHT22;10985;54.182;7.890;2022-09-12T14:49:26;21.10;99.90
21648;DHT22;10985;54.182;7.890;2022-09-12T14:51:56;21.20;99.90
21648;DHT22;10985;54.182;7.890;2022-09-12T14:57:00;21.00;99.90
21648;DHT22;10985;54.182;7.890;2022-09-12T15:04:43;21.00;99.90
21648;DHT22;10985;54.182;7.890;2022-09-12T15:07:30;21.00;99.90
21648;DHT22;10985;54.182;7.890;2022-09-12T15:09:58;21.00;99.90
21648;DHT22;10985;54.182;7.890;2022-09-12T15:12:24;21.00;99.90
21648;DHT22;10985;54.182;7.890;2022-09-12T15:14:50;21.00;99.90
21648;DHT22;10985;54.182;7.890;2022-09-12T15:17:15;21.00;99.90
21648;DHT22;10985;54.182;7.890;2022-09-12T15:19:41;21.00;99.90
21648;DHT22;10985;54.182;7.890;2022-09-12T15:22:10;21.00;99.90
21648;DHT22;10985;54.182;7.890;2022-09-12T15:24:36;21.00;99.90
21648;DHT22;10985;54.182;7.890;2022-09-12T15:27:10;21.00;99.90
21648;DHT22;10985;54.182;7.890;2022-09-12T15:29:36;21.00;99.90
21648;DHT22;10985;54.182;7.890;2022-09-12T15:32:01;21.00;99.90
21648;DHT22;10985;54.182;7.890;2022-09-12T15:34:27;21.00;99.90
21648;DHT22;10985;54.182;7.890;2022-09-12T15:36:52;21.00;99.90
21648;DHT22;10985;54.182;7.890;2022-09-12T15:39:18;21.00;99.90
21648;DHT22;10985;54.182;7.890;2022-09-12T15:41:43;21.00;99.90
21648;DHT22;10985;54.182;7.890;2022-09-12T15:44:11;21.00;99.90
21648;DHT22;10985;54.182;7.890;2022-09-12T15:46:37;21.00;99.90
21648;DHT22;10985;54.182;7.890;2022-09-12T15:49:03;21.00;99.90
21648;DHT22;10985;54.182;7.890;2022-09-12T15:51:28;21.00;99.90
21648;DHT22;10985;54.182;7.890;2022-09-12T15:53:54;21.00;99.90
21648;DHT22;10985;54.182;7.890;2022-09-12T15:56:20;21.00;99.90
21648;DHT22;10985;54.182;7.890;2022-09-12T15:58:47;21.00;99.90
21648;DHT22;10985;54.182;7.890;2022-09-12T16:01:15;21.00;99.90
21648;DHT22;10985;54.182;7.890;2022-09-12T16:03:41;21.00;99.90
21648;DHT22;10985;54.182;7.890;2022-09-12T16:06:07;21.10;99.90
21648;DHT22;10985;54.182;7.890;2022-09-12T16:08:33;21.00;99.90
21648;DHT22;10985;54.182;7.890;2022-09-12T16:11:03;21.10;99.90
21648;DHT22;10985;54.182;7.890;2022-09-12T16:13:29;21.10;99.90
21648;DHT22;10985;54.182;7.890;2022-09-12T16:15:56;21.10;99.90
21648;DHT22;10985;54.182;7.890;2022-09-12T16:18:22;21.10;99.90
21648;DHT22;10985;54.182;7.890;2022-09-12T16:20:51;21.10;99.90
21648;DHT22;10985;54.182;7.890;2022-09-12T16:23:17;21.10;99.90
21648;DHT22;10985;54.182;7.890;2022-09-12T16:25:43;21.10;99.90
21648;DHT22;10985;54.182;7.890;2022-09-12T16:28:08;21.10;99.90
21648;DHT22;10985;54.182;7.890;2022-09-12T16:30:34;21.00;99.90
21648;DHT22;10985;54.182;7.890;2022-09-12T16:33:00;21.00;99.90
21648;DHT22;10985;54.182;7.890;2022-09-12T16:35:26;21.00;99.90
21648;DHT22;10985;54.182;7.890;2022-09-12T16:37:52;21.00;99.90
21648;DHT22;10985;54.182;7.890;2022-09-12T16:40:18;21.00;99.90
21648;DHT22;10985;54.182;7.890;2022-09-12T16:42:44;21.00;99.90
21648;DHT22;10985;54.182;7.890;2022-09-12T16:45:10;21.00;99.90
21648;DHT22;10985;54.182;7.890;2022-09-12T16:47:36;20.90;99.90
21648;DHT22;10985;54.182;7.890;2022-09-12T16:50:01;20.90;99.90
21648;DHT22;10985;54.182;7.890;2022-09-12T16:52:27;20.90;99.90
21648;DHT22;10985;54.182;7.890;2022-09-12T16:54:53;20.90;99.90
21648;DHT22;10985;54.182;7.890;2022-09-12T16:57:19;20.80;99.90
21648;DHT22;10985;54.182;7.890;2022-09-12T16:59:44;20.80;99.90
21648;DHT22;10985;54.182;7.890;2022-09-12T17:02:13;20.80;99.90
21648;DHT22;10985;54.182;7.890;2022-09-12T17:04:39;20.80;99.90
21648;DHT22;10985;54.182;7.890;2022-09-12T17:07:05;20.70;99.90
21648;DHT22;10985;54.182;7.890;2022-09-12T17:09:30;20.70;99.90
21648;DHT22;10985;54.182;7.890;2022-09-12T17:11:56;20.70;99.90
21648;DHT22;10985;54.182;7.890;2022-09-12T17:14:22;20.60;99.90
21648;DHT22;10985;54.182;7.890;2022-09-12T17:16:48;20.60;99.90
21648;DHT22;10985;54.182;7.890;2022-09-12T17:19:17;20.60;99.90
21648;DHT22;10985;54.182;7.890;2022-09-12T17:21:44;20.50;99.90
21648;DHT22;10985;54.182;7.890;2022-09-12T17:24:11;20.50;99.90
21648;DHT22;10985;54.182;7.890;2022-09-12T17:26:37;20.40;99.90
21648;DHT22;10985;54.182;7.890;2022-09-12T17:29:02;20.40;99.90
21648;DHT22;10985;54.182;7.890;2022-09-12T17:31:28;20.40;99.90
21648;DHT22;10985;54.182;7.890;2022-09-12T17:33:57;20.40;99.90
21648;DHT22;10985;54.182;7.890;2022-09-12T17:36:23;20.30;99.90
21648;DHT22;10985;54.182;7.890;2022-09-12T17:38:49;20.30;99.90
21648;DHT22;10985;54.182;7.890;2022-09-12T17:41:17;20.30;99.90
21648;DHT22;10985;54.182;7.890;2022-09-12T17:43:44;20.30;99.90
21648;DHT22;10985;54.182;7.890;2022-09-12T17:46:10;20.20;99.90
21648;DHT22;10985;54.182;7.890;2022-09-12T17:48:36;20.20;99.90
21648;DHT22;10985;54.182;7.890;2022-09-12T17:51:13;20.20;99.90